Вятское

Карта отелей и гостиниц, располагающихся рядом с аэропортом Вятское :



Вятское Хабаровский край 48° 44' 38.4" N, 135° 44' 6.2988" E

Вятское Хабаровский край 48° 44' 38.4" N, 135° 44' 6.2988" E
Код аэродрома ИКАО: 
HD31
Код аэродрома RU: 
ХД31
Координаты: 
N48.74400° E135.73508°
Превышение над уровнем моря : 
50
Основная полоса: 
18/36
Курс магнитный: 
175/355
Длина основной ВПП: 
21
Ширина основной ВПП: 
20
Покрытие основной ВПП: 
Твёрдое (бетон)
Тип: 
Вертодром
Освещение ВПП: 
Нет
Класс аэродрома: 
Статус: 
Действующий
Принадлежность: 
МО
Сайт: 
E-mail аэродрома: 
Страна: 
Россия
Регион: 
Хабаровский край
Город: 
Дополнительная информация: 
Действит. индекс "ЬХЩВ" (нетранслитерируемый).

Найти трансфер

С помощью этой формы Вы можете найти трансфер из аэропорта Вятское в город, аэропорт или вокзал:

Карта места

Javascript is required to view this map.

Погода в аэропортах:

Авиационная погода в аэропорту Центральный

Регион: 
Погода METAR: 
UNOO 210400Z 23003MPS 6000 -SHSN BKN016 BKN033CB M05/M05 Q1018 R25/490540 NOSIG RMK QFE755
Время наблюдения: 
2020-02-21T04:00:00Z
Температура C: 
-5.0
Точка росы: 
-5.0
Направление ветра: 
230
Скорость ветра: 
6
Метеорологическая видимость: 
3.73
Явления погоды: 
-SHSN
Условия полета: 
MVFR
Аэропорт подробнее: 

Авиационная погода в Ставрополе

Регион: 
Погода METAR: 
URMT 210400Z 12005MPS 0100 R07/M0200N FG VV001 01/01 Q1015 R07/120060 NOSIG RMK QBB030 OBST OBSC QFE721
Время наблюдения: 
2020-02-21T04:00:00Z
Температура C: 
1.0
Точка росы: 
1.0
Направление ветра: 
120
Скорость ветра: 
10
Метеорологическая видимость: 
0.06
Явления погоды: 
FG
Условия полета: 
LIFR
Аэропорт подробнее: 

Авиационная погода в Платове

Регион: 
Погода METAR: 
URRP 210400Z 07008MPS 9999 -RASN BKN004 01/00 Q1019 R05/290052 TEMPO 0300 FG RMK QBB120 QFE759/1013
Время наблюдения: 
2020-02-21T04:00:00Z
Температура C: 
1.0
Точка росы: 
0.0
Направление ветра: 
70
Скорость ветра: 
16
Метеорологическая видимость: 
6.21
Явления погоды: 
-RA -SN
Условия полета: 
LIFR
Аэропорт подробнее: 

Авиационная погода во Владикавказе

Регион: 
Погода METAR: 
URMO 210400Z VRB01MPS 0150 R09/M0200N FG VV002 00/00 Q1015 R09/190060 NOSIG RMK QBB070 MT OBSC QFE718/0957
Время наблюдения: 
2020-02-21T04:00:00Z
Температура C: 
0.0
Точка росы: 
0.0
Направление ветра: 
0
Скорость ветра: 
2
Метеорологическая видимость: 
0.09
Явления погоды: 
FG
Условия полета: 
LIFR
Аэропорт подробнее: